TimeMST,TemperatureF,Dew PointF,Humidity,Sea Level PressureIn,VisibilityMPH,Wind Direction,Wind SpeedMPH,Gust SpeedMPH,PrecipitationIn,Events,Conditions,WindDirDegrees,DateUTC
12:55 AM,35.1,28.9,78,29.54,10.0,NNE,5.8,-,N/A,,Overcast,20,2012-11-09 07:55:00
1:55 AM,35.1,30.0,82,29.54,10.0,Calm,Calm,-,N/A,,Mostly Cloudy,0,2012-11-09 08:55:00
2:55 AM,35.1,28.9,78,29.52,10.0,WNW,4.6,-,N/A,,Mostly Cloudy,290,2012-11-09 09:55:00
3:55 AM,34.0,28.9,82,29.53,10.0,NW,3.5,-,N/A,,Scattered Clouds,310,2012-11-09 10:55:00
4:55 AM,34.0,28.9,82,29.54,10.0,SSE,3.5,-,N/A,,Mostly Cloudy,150,2012-11-09 11:55:00
5:55 AM,33.1,28.9,85,29.57,10.0,Calm,Calm,-,N/A,,Overcast,0,2012-11-09 12:55:00
6:55 AM,33.1,28.9,85,29.57,10.0,Calm,Calm,-,N/A,,Scattered Clouds,0,2012-11-09 13:55:00
7:55 AM,34.0,27.0,75,29.58,10.0,NE,3.5,-,N/A,,Overcast,40,2012-11-09 14:55:00
8:55 AM,35.1,28.9,78,29.58,10.0,Calm,Calm,-,N/A,,Mostly Cloudy,0,2012-11-09 15:55:00
9:55 AM,37.0,30.0,76,29.57,10.0,Calm,Calm,-,N/A,,Partly Cloudy,0,2012-11-09 16:55:00
10:55 AM,37.9,23.0,55,29.57,10.0,NE,3.5,-,N/A,,Clear,40,2012-11-09 17:55:00
11:55 AM,37.0,23.0,57,29.57,10.0,NNW,16.1,24.2,N/A,,Mostly Cloudy,330,2012-11-09 18:55:00
12:55 PM,36.0,19.0,50,29.57,10.0,West,18.4,-,0.00,Rain,Light Rain,260,2012-11-09 19:55:00
1:55 PM,35.1,19.9,54,29.58,9.0,ENE,5.8,-,0.01,,Overcast,70,2012-11-09 20:55:00
2:55 PM,34.0,25.0,70,29.57,10.0,East,4.6,-,0.00,,Overcast,100,2012-11-09 21:55:00
3:55 PM,35.1,24.1,64,29.58,10.0,Calm,Calm,-,N/A,,Overcast,0,2012-11-09 22:55:00
4:55 PM,34.0,24.1,67,29.59,10.0,Calm,Calm,-,N/A,,Overcast,0,2012-11-09 23:55:00
5:10 PM,33.8,26.6,75,29.58,2.5,Calm,Calm,-,0.00,Snow,Light Snow,0,2012-11-10 00:10:00
5:21 PM,30.2,26.6,86,29.58,1.0,NW,9.2,-,0.01,Snow,Light Snow,320,2012-11-10 00:21:00
5:30 PM,30.2,26.6,86,29.59,1.0,NNW,12.7,-,0.01,Snow,Light Snow,330,2012-11-10 00:30:00
5:40 PM,28.4,26.6,93,29.59,1.8,North,10.4,-,0.02,Snow,Light Snow,360,2012-11-10 00:40:00
5:43 PM,28.4,26.6,93,29.59,3.0,North,10.4,-,0.02,Snow,Light Snow,10,2012-11-10 00:43:00
5:50 PM,28.4,26.6,93,29.59,5.0,NNE,9.2,-,0.02,Snow,Light Snow,30,2012-11-10 00:50:00
5:55 PM,28.9,26.1,89,29.63,8.0,NE,8.1,-,0.02,,Overcast,40,2012-11-10 00:55:00
6:25 PM,28.4,24.8,86,29.61,2.0,Variable,5.8,-,0.00,Snow,Light Snow,0,2012-11-10 01:25:00
6:32 PM,28.4,24.8,86,29.61,1.5,South,5.8,-,0.00,Snow,Light Snow,190,2012-11-10 01:32:00
6:39 PM,28.4,24.8,86,29.61,3.0,South,4.6,-,0.00,Snow,Light Snow,170,2012-11-10 01:39:00
6:55 PM,28.9,24.1,82,29.65,9.0,SSW,4.6,-,0.00,,Overcast,200,2012-11-10 01:55:00
7:55 PM,28.9,24.1,82,29.65,10.0,South,5.8,-,N/A,,Overcast,170,2012-11-10 02:55:00
8:15 PM,28.4,24.8,86,29.62,10.0,South,3.5,-,N/A,,Overcast,180,2012-11-10 03:15:00
8:44 PM,28.4,24.8,86,29.62,5.0,Calm,Calm,-,0.00,Snow,Light Snow,0,2012-11-10 03:44:00
8:55 PM,28.9,25.0,85,29.65,8.0,Calm,Calm,-,0.00,,Overcast,0,2012-11-10 03:55:00
9:37 PM,28.4,24.8,86,29.63,5.0,Calm,Calm,-,0.00,Snow,Light Snow,0,2012-11-10 04:37:00
9:41 PM,28.4,24.8,86,29.63,2.5,Calm,Calm,-,0.00,Snow,Light Snow,0,2012-11-10 04:41:00
9:45 PM,28.4,26.6,93,29.63,1.5,NE,5.8,-,0.00,Snow,Light Snow,50,2012-11-10 04:45:00
9:55 PM,28.0,25.0,88,29.67,0.8,NE,5.8,-,0.01,Snow,Light Snow,50,2012-11-10 04:55:00
10:04 PM,28.4,24.8,86,29.64,0.8,NE,5.8,-,0.01,Snow,Light Snow,40,2012-11-10 05:04:00
10:26 PM,26.6,24.8,93,29.64,1.0,East,4.6,-,0.04,Snow,Light Snow,80,2012-11-10 05:26:00
10:38 PM,26.6,24.8,93,29.64,1.2,East,3.5,-,0.05,Snow,Light Snow,80,2012-11-10 05:38:00
10:55 PM,27.0,24.1,89,29.67,1.2,NNE,4.6,-,0.05,Snow,Light Snow,30,2012-11-10 05:55:00
11:44 PM,26.6,24.8,93,29.64,0.8,NNE,8.1,-,0.03,Snow,Light Snow,30,2012-11-10 06:44:00
11:55 PM,26.1,23.0,88,29.67,1.0,NNE,6.9,-,0.04,Snow,Light Snow,20,2012-11-10 06:55:00